Time;durP1;ratioP1;P1;durP2;ratioP2;P2;SDS_P1;SDS_P2;PMS_P1;PMS_P2;Temp;Humidity;BMP_temperature;BMP_pressure;BME280_temperature;BME280_humidity;BME280_pressure;Samples;Min_cycle;Max_cycle;Signal;HPM_P1;HPM_P2
2022/05/04 00:00:01;;;;;;;1.60;1.20;;;20.60;50.30;;;;;;6246383;28;20554;-69
2022/05/04 00:03:01;;;;;;;1.17;0.98;;;20.60;50.30;;;;;;6246290;28;20037;-69
2022/05/04 00:06:02;;;;;;;2.25;1.17;;;20.60;50.20;;;;;;6245934;28;20065;-69
2022/05/04 00:09:03;;;;;;;2.05;1.20;;;20.60;50.20;;;;;;6245951;28;20415;-69
2022/05/04 00:12:05;;;;;;;1.42;1.05;;;20.60;50.30;;;;;;6245490;28;20032;-69
2022/05/04 00:15:06;;;;;;;1.73;1.08;;;20.60;50.30;;;;;;6245908;28;20064;-69
2022/05/04 00:18:06;;;;;;;1.60;0.95;;;20.60;50.30;;;;;;6244433;28;20041;-69
2022/05/04 00:21:07;;;;;;;1.42;1.10;;;20.60;50.30;;;;;;6228243;28;20123;-72
2022/05/04 00:24:08;;;;;;;1.60;1.08;;;20.60;50.30;;;;;;6227868;28;20116;-71
2022/05/04 00:27:08;;;;;;;2.00;1.25;;;20.60;50.30;;;;;;6227849;28;20114;-70
2022/05/04 00:30:09;;;;;;;1.77;1.05;;;20.60;50.30;;;;;;6245951;28;20588;-71
2022/05/04 00:33:10;;;;;;;1.42;1.08;;;20.60;50.20;;;;;;6245675;28;20087;-71
2022/05/04 00:36:10;;;;;;;1.92;1.42;;;20.60;50.30;;;;;;6245092;28;20025;-71
2022/05/04 00:39:11;;;;;;;1.20;1.00;;;20.60;50.30;;;;;;6245138;28;20530;-71
2022/05/04 00:42:14;;;;;;;2.88;1.52;;;20.50;50.30;;;;;;6245342;28;20026;-70
2022/05/04 00:45:15;;;;;;;1.27;1.08;;;20.60;50.30;;;;;;6250840;28;20025;-69
2022/05/04 00:48:16;;;;;;;1.23;0.98;;;20.60;50.30;;;;;;6269120;28;20597;-69
2022/05/04 00:51:17;;;;;;;1.08;0.90;;;20.60;50.30;;;;;;6251969;28;20025;-68
2022/05/04 00:54:18;;;;;;;2.13;1.10;;;20.50;50.20;;;;;;6251650;28;20420;-69
2022/05/04 00:58:54;;;;;;;0.98;0.85;;;20.60;50.30;;;;;;6269560;28;20115;-69
2022/05/04 01:00:43;;;;;;;1.65;0.95;;;20.60;50.30;;;;;;6269531;28;20021;-69
2022/05/04 01:03:44;;;;;;;1.65;1.20;;;20.60;50.30;;;;;;6251383;28;20045;-71
2022/05/04 01:06:46;;;;;;;1.27;1.00;;;20.50;50.20;;;;;;6269467;28;20035;-71
2022/05/04 01:09:48;;;;;;;1.88;1.20;;;20.60;50.30;;;;;;6251057;28;20053;-71
2022/05/04 01:12:53;;;;;;;1.77;1.02;;;20.60;50.30;;;;;;6251589;28;20043;-71
2022/05/04 01:15:54;;;;;;;1.30;1.10;;;20.60;50.40;;;;;;6251136;28;20086;-71
2022/05/04 01:18:55;;;;;;;1.42;0.93;;;20.60;50.30;;;;;;6269428;28;20021;-71
2022/05/04 01:21:56;;;;;;;1.35;1.05;;;20.60;50.30;;;;;;6251291;28;20025;-71
2022/05/04 01:24:56;;;;;;;1.10;0.90;;;20.60;50.40;;;;;;6268667;28;20134;-69
2022/05/04 01:27:57;;;;;;;1.02;0.93;;;20.60;50.40;;;;;;6250903;28;20591;-67
2022/05/04 01:30:58;;;;;;;0.95;0.82;;;20.60;50.40;;;;;;6239770;28;20033;-71
2022/05/04 01:34:00;;;;;;;1.67;0.95;;;20.60;50.40;;;;;;6244418;28;20033;-71
2022/05/04 01:37:01;;;;;;;1.77;1.00;;;20.60;50.40;;;;;;6244135;28;20032;-70
2022/05/04 01:40:02;;;;;;;1.38;1.05;;;20.60;50.30;;;;;;6244153;28;20100;-71
2022/05/04 01:43:03;;;;;;;1.05;0.90;;;20.60;50.40;;;;;;6244327;28;20032;-71
2022/05/04 01:46:04;;;;;;;1.65;0.95;;;20.60;50.30;;;;;;6244115;28;20033;-71
2022/05/04 01:49:04;;;;;;;1.35;0.85;;;20.60;50.40;;;;;;6243771;28;20024;-70
2022/05/04 01:52:05;;;;;;;1.60;0.80;;;20.60;50.30;;;;;;6242687;28;20653;-71
2022/05/04 01:55:07;;;;;;;1.17;0.95;;;20.60;50.30;;;;;;6244018;28;20040;-71
2022/05/04 01:58:11;;;;;;;1.13;0.75;;;20.60;50.40;;;;;;6243941;28;20025;-70
2022/05/04 02:01:13;;;;;;;1.27;1.00;;;20.60;50.40;;;;;;6243623;28;20022;-69
2022/05/04 02:04:14;;;;;;;1.15;1.00;;;20.50;50.30;;;;;;6243836;28;20136;-69
2022/05/04 02:07:16;;;;;;;2.08;1.00;;;20.60;50.40;;;;;;6248873;28;20112;-69
2022/05/04 02:10:16;;;;;;;1.08;0.93;;;20.60;50.40;;;;;;6268276;28;20081;-69
2022/05/04 02:13:17;;;;;;;1.17;0.82;;;20.60;50.40;;;;;;6250619;28;20029;-69
2022/05/04 02:16:17;;;;;;;0.95;0.85;;;20.60;50.40;;;;;;6250183;28;20033;-70
2022/05/04 02:19:18;;;;;;;1.85;1.10;;;20.60;50.40;;;;;;6250228;28;20039;-71
2022/05/04 02:22:19;;;;;;;1.52;1.10;;;20.50;50.30;;;;;;6250242;28;20094;-71
2022/05/04 02:25:19;;;;;;;1.23;0.75;;;20.60;50.40;;;;;;6250231;28;20037;-70
2022/05/04 02:28:20;;;;;;;1.15;1.02;;;20.60;50.40;;;;;;6268442;28;20610;-71
2022/05/04 02:31:20;;;;;;;0.80;0.80;;;20.60;50.40;;;;;;6249673;28;20064;-70
2022/05/04 02:34:21;;;;;;;0.90;0.75;;;20.50;50.40;;;;;;6268224;28;20385;-71
2022/05/04 02:40:41;;;;;;;1.40;0.82;;;20.50;50.30;;;;;;6272581;28;20021;-71
2022/05/04 02:43:41;;;;;;;0.80;0.70;;;20.60;50.40;;;;;;6271414;28;20028;-70
2022/05/04 02:46:42;;;;;;;1.08;0.80;;;20.50;50.40;;;;;;6272714;28;20108;-71
2022/05/04 02:49:43;;;;;;;1.40;1.08;;;20.50;50.30;;;;;;6254389;28;20029;-70
2022/05/04 02:52:43;;;;;;;1.60;1.25;;;20.50;50.40;;;;;;6254389;28;20035;-70
2022/05/04 02:55:44;;;;;;;1.38;0.88;;;20.50;50.40;;;;;;6254537;28;20025;-71
2022/05/04 02:58:45;;;;;;;0.98;0.85;;;20.50;50.40;;;;;;6272048;28;20021;-71
2022/05/04 03:05:07;;;;;;;0.90;0.70;;;20.50;50.40;;;;;;6272462;28;20025;-70
2022/05/04 03:08:08;;;;;;;1.75;0.93;;;20.50;50.30;;;;;;6254110;28;20491;-69
2022/05/04 03:14:28;;;;;;;1.77;1.10;;;20.60;50.40;;;;;;6272088;28;20029;-72
2022/05/04 03:17:29;;;;;;;0.80;0.65;;;20.60;50.40;;;;;;6254266;28;20661;-71
2022/05/04 03:20:30;;;;;;;1.42;1.00;;;20.50;50.30;;;;;;6253627;28;20048;-72
2022/05/04 03:23:31;;;;;;;1.02;0.80;;;20.60;50.40;;;;;;6253854;28;20029;-71
2022/05/04 03:26:32;;;;;;;1.83;1.08;;;20.50;50.40;;;;;;6271737;28;20056;-71
2022/05/04 03:29:32;;;;;;;1.13;0.88;;;20.50;50.30;;;;;;6271617;28;20028;-71
2022/05/04 03:32:33;;;;;;;1.20;0.90;;;20.50;50.40;;;;;;6271321;28;20025;-72
2022/05/04 03:35:33;;;;;;;1.20;1.00;;;20.50;50.40;;;;;;6271529;28;20533;-71
2022/05/04 03:38:34;;;;;;;0.95;0.85;;;20.60;50.40;;;;;;6271273;28;20044;-71
2022/05/04 03:41:36;;;;;;;1.52;0.88;;;20.60;50.40;;;;;;6253461;28;20069;-71
2022/05/04 03:44:37;;;;;;;1.30;0.88;;;20.50;50.40;;;;;;6271124;28;20056;-70
2022/05/04 03:47:37;;;;;;;0.75;0.75;;;20.50;50.40;;;;;;6270624;28;20033;-70
2022/05/04 03:50:38;;;;;;;1.05;0.82;;;20.50;50.40;;;;;;6270765;28;20021;-71
2022/05/04 03:53:38;;;;;;;1.23;0.90;;;20.50;50.40;;;;;;6269530;28;20106;-71
2022/05/04 03:56:40;;;;;;;1.30;1.13;;;20.50;50.40;;;;;;6252500;28;20025;-71
2022/05/04 03:59:40;;;;;;;1.10;0.90;;;20.50;50.40;;;;;;6252795;28;20021;-71
2022/05/04 04:02:41;;;;;;;1.20;0.90;;;20.50;50.40;;;;;;6270457;28;20024;-71
2022/05/04 04:05:41;;;;;;;1.15;0.90;;;20.50;50.40;;;;;;6252868;28;20029;-72
2022/05/04 04:08:43;;;;;;;2.30;0.93;;;20.50;50.40;;;;;;6270423;28;20072;-71
2022/05/04 04:11:43;;;;;;;1.58;0.88;;;20.50;50.40;;;;;;6270645;28;20032;-72
2022/05/04 04:14:44;;;;;;;2.05;1.30;;;20.60;50.50;;;;;;6270226;28;20021;-70
2022/05/04 04:17:44;;;;;;;1.15;0.90;;;20.50;50.40;;;;;;6270547;28;20086;-69
2022/05/04 04:24:05;;;;;;;1.08;0.80;;;20.50;50.40;;;;;;6245994;28;20026;-71
2022/05/04 04:27:05;;;;;;;1.67;1.27;;;20.50;50.40;;;;;;6227783;28;20036;-71
2022/05/04 04:30:07;;;;;;;1.60;0.90;;;20.50;50.40;;;;;;6249081;28;20483;-71
2022/05/04 04:33:08;;;;;;;0.80;0.70;;;20.50;50.40;;;;;;6270026;28;20057;-71
2022/05/04 04:36:09;;;;;;;1.60;0.90;;;20.50;50.40;;;;;;6270087;28;20031;-71
2022/05/04 04:39:10;;;;;;;0.80;0.80;;;20.50;50.40;;;;;;6270630;28;20017;-69
2022/05/04 04:42:12;;;;;;;1.02;0.82;;;20.60;50.40;;;;;;6269937;28;20031;-71
2022/05/04 04:45:13;;;;;;;1.30;1.02;;;20.50;50.40;;;;;;6270051;28;20144;-71
2022/05/04 04:48:17;;;;;;;1.00;0.90;;;20.60;50.40;;;;;;6251867;28;20029;-71
2022/05/04 04:51:18;;;;;;;1.13;0.70;;;20.50;50.40;;;;;;6251890;28;20025;-71
2022/05/04 04:54:18;;;;;;;1.08;0.98;;;20.60;50.40;;;;;;6269785;28;20082;-71
2022/05/04 04:57:19;;;;;;;1.50;0.90;;;20.50;50.40;;;;;;6269638;28;20021;-70
2022/05/04 05:00:38;;;;;;;1.40;0.88;;;20.50;50.40;;;;;;6250677;28;20025;-71
2022/05/04 05:03:39;;;;;;;0.90;0.80;;;20.60;50.50;;;;;;6243008;28;20022;-70
2022/05/04 05:06:39;;;;;;;0.77;0.77;;;20.50;50.40;;;;;;6244962;28;20032;-70
2022/05/04 05:09:40;;;;;;;0.93;0.80;;;20.60;50.40;;;;;;6244625;28;20041;-71
2022/05/04 05:12:40;;;;;;;1.10;1.00;;;20.50;50.40;;;;;;6243338;28;20025;-71
2022/05/04 05:19:00;;;;;;;0.98;0.88;;;20.50;50.40;;;;;;6244511;28;20025;-71
2022/05/04 05:22:00;;;;;;;1.23;1.02;;;20.60;50.40;;;;;;6244410;28;20044;-72
2022/05/04 05:25:01;;;;;;;1.00;0.90;;;20.50;50.40;;;;;;6244817;28;20025;-71
2022/05/04 05:28:02;;;;;;;1.30;0.75;;;20.60;50.40;;;;;;6255038;28;20029;-71
2022/05/04 05:31:03;;;;;;;1.00;0.90;;;20.60;50.40;;;;;;6269071;28;20399;-70
2022/05/04 05:34:04;;;;;;;1.25;0.90;;;20.60;50.40;;;;;;6250732;28;20021;-70
2022/05/04 05:37:05;;;;;;;0.80;0.70;;;20.50;50.30;;;;;;6268814;28;20034;-71
2022/05/04 05:40:06;;;;;;;0.98;0.88;;;20.60;50.40;;;;;;6251013;28;20391;-71
2022/05/04 05:43:07;;;;;;;0.63;0.60;;;20.60;50.40;;;;;;6268781;28;20549;-71
2022/05/04 05:46:07;;;;;;;1.50;0.80;;;20.60;50.40;;;;;;6268782;28;20044;-72
2022/05/04 05:49:08;;;;;;;1.48;1.00;;;20.60;50.40;;;;;;6268808;28;20110;-71
2022/05/04 05:52:09;;;;;;;0.95;0.80;;;20.60;50.60;;;;;;6250877;28;20487;-71
2022/05/04 05:55:10;;;;;;;1.38;0.98;;;20.60;50.20;;;;;;6250056;28;20021;-68
2022/05/04 05:58:11;;;;;;;1.00;0.90;;;20.60;50.20;;;;;;6250005;28;20049;-68
2022/05/04 06:01:12;;;;;;;0.85;0.70;;;20.60;50.20;;;;;;6237868;28;20476;-68
2022/05/04 06:04:13;;;;;;;1.10;0.95;;;20.60;50.20;;;;;;6245874;28;20567;-68
2022/05/04 06:07:13;;;;;;;1.30;0.90;;;20.60;50.20;;;;;;6245454;28;20021;-68
2022/05/04 06:10:14;;;;;;;3.00;1.05;;;20.60;50.20;;;;;;6270035;28;20045;-68
2022/05/04 06:13:15;;;;;;;1.00;0.90;;;20.60;50.20;;;;;;6257155;28;20399;-67
2022/05/04 06:16:16;;;;;;;1.50;1.10;;;20.60;50.20;;;;;;6274746;28;20071;-69
2022/05/04 06:19:16;;;;;;;1.23;1.00;;;20.60;50.20;;;;;;6274863;28;20112;-67
2022/05/04 06:22:17;;;;;;;2.17;0.90;;;20.60;50.20;;;;;;6275300;28;20029;-71
2022/05/04 06:25:18;;;;;;;1.25;1.05;;;20.60;50.20;;;;;;6256746;28;20048;-70
2022/05/04 06:28:19;;;;;;;2.00;0.93;;;20.60;50.20;;;;;;6256699;28;20035;-70
2022/05/04 06:34:38;;;;;;;1.35;1.05;;;20.60;50.10;;;;;;6275198;28;20037;-71
2022/05/04 06:37:39;;;;;;;2.72;0.90;;;20.60;50.20;;;;;;6274678;28;20339;-70
2022/05/04 06:40:39;;;;;;;1.35;0.98;;;20.60;50.20;;;;;;6256963;28;20017;-69
2022/05/04 06:43:40;;;;;;;2.45;1.13;;;20.60;50.20;;;;;;6274421;28;20502;-71
2022/05/04 06:46:42;;;;;;;1.92;1.20;;;20.60;50.20;;;;;;6256732;28;20115;-70
2022/05/04 06:49:43;;;;;;;1.55;1.00;;;20.60;50.20;;;;;;6273912;28;20033;-70
2022/05/04 06:52:44;;;;;;;2.08;1.13;;;20.60;50.20;;;;;;6274189;28;20021;-70
2022/05/04 06:55:44;;;;;;;1.88;1.10;;;20.60;50.10;;;;;;6274365;28;20165;-70
2022/05/04 06:58:45;;;;;;;2.17;1.30;;;20.60;50.20;;;;;;6274084;28;20033;-69
2022/05/04 07:01:46;;;;;;;1.85;1.20;;;20.60;50.20;;;;;;6256169;28;20398;-71
2022/05/04 07:04:47;;;;;;;1.65;1.27;;;20.60;50.20;;;;;;6274106;28;20025;-70
2022/05/04 07:07:48;;;;;;;2.03;1.23;;;20.60;50.20;;;;;;6273734;28;20499;-70
2022/05/04 07:10:49;;;;;;;2.10;1.33;;;20.60;50.20;;;;;;6273856;28;20025;-69
2022/05/04 07:13:49;;;;;;;1.52;1.10;;;20.60;50.20;;;;;;6273851;28;20065;-70
2022/05/04 07:16:50;;;;;;;1.23;1.00;;;20.60;50.20;;;;;;6273526;28;20079;-70
2022/05/04 07:19:52;;;;;;;3.38;1.30;;;20.60;50.20;;;;;;6273672;28;20075;-70
2022/05/04 07:22:52;;;;;;;1.33;1.00;;;20.60;50.20;;;;;;6254577;28;20021;-70
2022/05/04 07:25:54;;;;;;;1.83;1.00;;;20.60;50.30;;;;;;6273701;28;20048;-70
2022/05/04 07:28:55;;;;;;;2.28;1.15;;;20.60;50.20;;;;;;6255533;28;20787;-68
2022/05/04 07:31:55;;;;;;;1.88;1.20;;;20.60;50.20;;;;;;6274378;28;20032;-66
2022/05/04 07:34:56;;;;;;;1.30;0.95;;;20.60;50.30;;;;;;6273994;28;20032;-67
2022/05/04 07:37:56;;;;;;;1.80;1.05;;;20.60;50.20;;;;;;6274166;28;20021;-66
2022/05/04 07:44:16;;;;;;;2.00;1.17;;;20.60;50.30;;;;;;6274238;28;20025;-67
2022/05/04 07:47:17;;;;;;;1.45;1.10;;;20.60;50.30;;;;;;6273759;28;20450;-69
2022/05/04 07:50:17;;;;;;;1.75;1.13;;;20.60;50.20;;;;;;6273838;28;20036;-68
2022/05/04 07:53:18;;;;;;;1.40;1.08;;;20.60;50.30;;;;;;6255940;28;20047;-68
2022/05/04 07:56:19;;;;;;;1.55;1.10;;;20.60;50.30;;;;;;6273655;28;20029;-68
2022/05/04 07:59:19;;;;;;;1.02;0.90;;;20.60;50.30;;;;;;6255751;28;20028;-68
2022/05/04 08:05:40;;;;;;;1.20;0.95;;;20.60;50.30;;;;;;6273579;28;20033;-69
2022/05/04 08:08:41;;;;;;;2.05;1.00;;;20.60;50.20;;;;;;6273041;28;20044;-69
2022/05/04 08:11:42;;;;;;;1.05;0.90;;;20.50;50.20;;;;;;6273401;28;20053;-68
2022/05/04 08:14:43;;;;;;;1.30;1.00;;;20.60;50.30;;;;;;6273185;28;20083;-68
2022/05/04 08:17:44;;;;;;;1.63;1.08;;;20.60;50.30;;;;;;6255399;28;20037;-69
2022/05/04 08:20:44;;;;;;;2.45;1.10;;;20.60;50.30;;;;;;6255165;28;20035;-68
2022/05/04 08:23:45;;;;;;;1.77;1.08;;;20.60;50.30;;;;;;6273236;28;20551;-68
2022/05/04 08:26:45;;;;;;;2.08;1.33;;;20.60;50.30;;;;;;6273249;28;20033;-68
2022/05/04 08:29:46;;;;;;;1.98;1.17;;;20.60;50.30;;;;;;6255108;28;20546;-68
2022/05/04 08:32:48;;;;;;;0.85;0.75;;;20.60;50.30;;;;;;6273063;28;20048;-69
2022/05/04 08:35:49;;;;;;;1.48;1.08;;;20.60;50.30;;;;;;6272884;28;20498;-68
2022/05/04 08:38:49;;;;;;;1.52;1.10;;;20.60;50.30;;;;;;6272977;28;20045;-66
2022/05/04 08:41:51;;;;;;;1.10;0.80;;;20.60;50.30;;;;;;6272813;28;20385;-66
2022/05/04 08:44:57;;;;;;;1.65;1.10;;;20.60;50.30;;;;;;6272727;28;20025;-65
2022/05/04 08:47:57;;;;;;;1.73;1.00;;;20.50;50.20;;;;;;6255015;28;20029;-68
2022/05/04 08:51:05;;;;;;;2.13;1.20;;;20.50;50.20;;;;;;6272525;28;20033;-68
2022/05/04 08:54:09;;;;;;;0.90;0.80;;;20.50;50.20;;;;;;6272808;28;20118;-66
2022/05/04 08:57:10;;;;;;;1.60;0.98;;;20.60;50.30;;;;;;6254786;28;20029;-68
2022/05/04 09:00:11;;;;;;;1.67;1.10;;;20.60;50.30;;;;;;6272122;28;20015;-68
2022/05/04 09:03:12;;;;;;;3.80;1.00;;;20.60;50.30;;;;;;6272393;28;20555;-69
2022/05/04 09:06:24;;;;;;;2.45;1.20;;;20.60;50.30;;;;;;6271927;28;20033;-68
2022/05/04 09:09:24;;;;;;;1.83;0.90;;;20.50;50.20;;;;;;6272204;28;20124;-69
2022/05/04 09:12:32;;;;;;;2.15;1.10;;;20.60;50.30;;;;;;6272017;28;20368;-68
2022/05/04 09:15:40;;;;;;;1.20;0.90;;;20.60;50.40;;;;;;6271855;28;20017;-68
2022/05/04 09:18:40;;;;;;;0.93;0.80;;;20.60;50.30;;;;;;6272014;28;20013;-68
2022/05/04 09:21:41;;;;;;;1.25;0.95;;;20.60;50.30;;;;;;6254024;28;20025;-68
2022/05/04 09:24:44;;;;;;;1.38;0.98;;;20.60;50.30;;;;;;6254091;28;20023;-68
2022/05/04 09:27:46;;;;;;;1.33;1.00;;;20.60;50.30;;;;;;6271502;28;20027;-68
2022/05/04 09:30:51;;;;;;;1.63;0.90;;;20.60;50.30;;;;;;6253833;28;20391;-66
2022/05/04 09:34:05;;;;;;;1.27;0.88;;;20.60;50.40;;;;;;6271525;28;20021;-66
2022/05/04 09:47:20;;;;;;;1.08;0.82;;;20.50;50.20;;;;;;6271593;28;20017;-68
2022/05/04 09:50:21;;;;;;;0.98;0.80;;;20.60;50.30;;;;;;6271545;28;20044;-66
2022/05/04 09:53:26;;;;;;;1.27;1.00;;;20.60;50.30;;;;;;6271403;28;20032;-66
2022/05/04 09:56:27;;;;;;;1.23;0.90;;;20.60;50.30;;;;;;6271359;28;20036;-66
2022/05/04 09:59:30;;;;;;;1.35;0.90;;;20.60;50.30;;;;;;6271338;28;20025;-66
2022/05/04 10:02:32;;;;;;;1.50;0.90;;;20.50;50.20;;;;;;6271318;28;20021;-66
2022/05/04 10:05:33;;;;;;;1.00;0.90;;;20.60;50.20;;;;;;6269898;28;20086;-66
2022/05/04 10:08:34;;;;;;;1.48;0.88;;;20.60;50.30;;;;;;6253219;28;20523;-66
2022/05/04 10:11:35;;;;;;;1.00;0.90;;;20.60;50.20;;;;;;6269881;28;20027;-68
2022/05/04 10:14:36;;;;;;;1.25;0.80;;;20.60;50.20;;;;;;6271147;28;20025;-68
2022/05/04 10:17:52;;;;;;;1.17;0.80;;;20.60;50.30;;;;;;6270993;28;20029;-68
2022/05/04 10:21:11;;;;;;;1.00;0.85;;;20.60;50.30;;;;;;6270962;28;20392;-68
2022/05/04 10:24:13;;;;;;;0.90;0.90;;;20.60;50.20;;;;;;6252982;28;20399;-68
2022/05/04 10:27:23;;;;;;;1.05;0.88;;;20.60;50.20;;;;;;6270937;28;20036;-68
2022/05/04 10:30:33;;;;;;;0.93;0.80;;;20.60;50.30;;;;;;6270530;28;20037;-68
2022/05/04 10:33:35;;;;;;;0.90;0.75;;;20.50;50.20;;;;;;6271064;28;20484;-68
2022/05/04 10:36:38;;;;;;;0.70;0.60;;;20.60;50.30;;;;;;6270598;28;20071;-68
2022/05/04 10:39:40;;;;;;;1.55;0.88;;;20.60;50.20;;;;;;6270792;28;20550;-68
2022/05/04 10:43:05;;;;;;;1.83;0.77;;;20.60;50.30;;;;;;6270876;28;20028;-68
2022/05/04 10:46:11;;;;;;;0.90;0.82;;;20.60;50.30;;;;;;6260628;28;20112;-68
2022/05/04 10:49:14;;;;;;;1.67;0.77;;;20.60;50.30;;;;;;6270673;28;20021;-68
2022/05/04 10:52:17;;;;;;;0.68;0.60;;;20.60;50.30;;;;;;6252794;28;20051;-68
2022/05/04 10:55:18;;;;;;;0.77;0.63;;;20.50;50.20;;;;;;6269960;28;20035;-70
2022/05/04 10:58:31;;;;;;;1.30;1.10;;;20.50;50.30;;;;;;6274489;28;20456;-69
2022/05/04 11:01:37;;;;;;;0.95;0.82;;;20.50;50.30;;;;;;6256475;28;20025;-69
2022/05/04 11:04:39;;;;;;;0.80;0.70;;;20.60;50.40;;;;;;6274698;28;20052;-68
2022/05/04 11:07:40;;;;;;;1.17;0.80;;;20.60;50.30;;;;;;6274028;28;20029;-69
2022/05/04 11:10:43;;;;;;;1.38;1.00;;;20.50;50.20;;;;;;6274427;28;20025;-68
2022/05/04 11:13:43;;;;;;;1.00;0.90;;;20.60;50.30;;;;;;6274517;28;20029;-68
2022/05/04 11:16:45;;;;;;;1.05;0.90;;;20.50;50.30;;;;;;6274497;28;20487;-68
2022/05/04 11:19:49;;;;;;;0.85;0.70;;;20.50;50.30;;;;;;6273257;28;20119;-68
2022/05/04 11:22:51;;;;;;;0.88;0.80;;;20.50;50.30;;;;;;6256044;28;20023;-67
2022/05/04 11:25:52;;;;;;;0.70;0.70;;;20.50;50.20;;;;;;6274264;28;20028;-69
2022/05/04 11:28:54;;;;;;;0.57;0.57;;;20.60;50.30;;;;;;6273702;28;20029;-69
2022/05/04 11:31:56;;;;;;;1.20;0.70;;;20.50;50.30;;;;;;6255805;28;20032;-68
2022/05/04 11:34:57;;;;;;;0.80;0.60;;;20.50;50.30;;;;;;6255735;28;20036;-69
2022/05/04 11:37:57;;;;;;;0.93;0.90;;;20.50;50.30;;;;;;6273532;28;20407;-69
2022/05/04 11:41:00;;;;;;;1.00;0.70;;;20.50;50.30;;;;;;6255634;28;20035;-69
2022/05/04 11:44:02;;;;;;;0.80;0.70;;;20.50;50.30;;;;;;6255649;28;20021;-68
2022/05/04 11:47:03;;;;;;;0.73;0.70;;;20.50;50.30;;;;;;6271982;28;20032;-69
2022/05/04 11:50:07;;;;;;;0.90;0.70;;;20.50;50.30;;;;;;6255705;28;20504;-68
2022/05/04 11:53:07;;;;;;;0.85;0.70;;;20.50;50.30;;;;;;6273223;28;20058;-68
2022/05/04 11:56:09;;;;;;;0.82;0.57;;;20.50;50.30;;;;;;6273279;28;20029;-69
2022/05/04 11:59:10;;;;;;;0.98;0.70;;;20.50;50.30;;;;;;6272999;28;20451;-69
2022/05/04 12:02:11;;;;;;;1.00;0.90;;;20.50;50.30;;;;;;6272988;28;20024;-69
2022/05/04 12:05:11;;;;;;;0.80;0.70;;;20.50;50.20;;;;;;6271765;28;20029;-68
2022/05/04 12:08:14;;;;;;;1.80;1.00;;;20.50;50.20;;;;;;6272192;28;20556;-68
2022/05/04 12:11:16;;;;;;;0.68;0.68;;;20.60;50.30;;;;;;6255019;28;20111;-69
2022/05/04 12:14:18;;;;;;;1.00;0.75;;;20.60;50.40;;;;;;6273135;28;20017;-68
2022/05/04 12:17:25;;;;;;;0.80;0.70;;;20.60;50.30;;;;;;6272535;28;20060;-68
2022/05/04 12:20:26;;;;;;;1.02;0.80;;;20.50;50.20;;;;;;6272520;28;20476;-69
2022/05/04 12:23:28;;;;;;;0.60;0.60;;;20.50;50.20;;;;;;6272709;28;20464;-68
2022/05/04 12:26:29;;;;;;;0.90;0.80;;;20.60;50.30;;;;;;6272352;28;20021;-69
2022/05/04 12:33:11;;;;;;;0.80;0.73;;;20.60;50.30;;;;;;6272372;28;20028;-69
2022/05/04 12:36:12;;;;;;;0.77;0.70;;;20.50;50.20;;;;;;6254176;28;20029;-69
2022/05/04 12:39:13;;;;;;;0.60;0.60;;;20.50;50.20;;;;;;6272133;28;20017;-68
2022/05/04 12:42:15;;;;;;;0.60;0.60;;;20.50;50.30;;;;;;6271908;28;20383;-69
2022/05/04 12:45:19;;;;;;;0.75;0.73;;;20.50;50.30;;;;;;6272323;28;20100;-69
2022/05/04 12:48:24;;;;;;;1.08;0.82;;;20.50;50.30;;;;;;6272027;28;20051;-69
2022/05/04 12:51:26;;;;;;;0.68;0.60;;;20.50;50.30;;;;;;6254170;28;20021;-69
2022/05/04 12:54:27;;;;;;;0.82;0.68;;;20.50;50.30;;;;;;6254025;28;20025;-68
2022/05/04 12:57:27;;;;;;;1.17;0.90;;;20.50;50.30;;;;;;6271754;28;20051;-69
2022/05/04 13:00:29;;;;;;;0.60;0.52;;;20.50;50.40;;;;;;6271349;28;20079;-69
2022/05/04 13:03:30;;;;;;;1.33;0.52;;;20.50;50.40;;;;;;6271714;28;20458;-68
2022/05/04 13:06:30;;;;;;;0.68;0.60;;;20.50;50.30;;;;;;6271674;28;20041;-69
2022/05/04 13:09:31;;;;;;;0.82;0.77;;;20.50;50.30;;;;;;6271319;28;20049;-69
2022/05/04 13:12:31;;;;;;;0.60;0.60;;;20.50;50.40;;;;;;6271307;28;20040;-69
2022/05/04 13:15:34;;;;;;;0.60;0.60;;;20.50;50.40;;;;;;6271294;28;20040;-69
2022/05/04 13:18:34;;;;;;;0.93;0.60;;;20.50;50.40;;;;;;6271276;28;20059;-69
2022/05/04 13:21:35;;;;;;;0.65;0.65;;;20.50;50.30;;;;;;6270470;28;20025;-68
2022/05/04 13:24:35;;;;;;;0.75;0.65;;;20.50;50.30;;;;;;6271239;28;20025;-69
2022/05/04 13:27:37;;;;;;;0.60;0.60;;;20.50;50.30;;;;;;6270871;28;20063;-68
2022/05/04 13:30:38;;;;;;;0.80;0.60;;;20.50;50.30;;;;;;6270903;28;20476;-68
2022/05/04 13:33:41;;;;;;;0.50;0.50;;;20.50;50.30;;;;;;6271014;28;20372;-69
2022/05/04 13:36:42;;;;;;;0.77;0.65;;;20.50;50.30;;;;;;6270938;28;20476;-69
2022/05/04 13:39:42;;;;;;;0.50;0.40;;;20.50;50.30;;;;;;6270943;28;20036;-69
2022/05/04 13:42:43;;;;;;;0.63;0.60;;;20.50;50.40;;;;;;6271039;28;20056;-69
2022/05/04 13:45:43;;;;;;;1.10;0.60;;;20.50;50.40;;;;;;6270642;28;20391;-68
2022/05/04 13:48:44;;;;;;;0.73;0.65;;;20.50;50.40;;;;;;6270476;28;20035;-68
2022/05/04 13:55:06;;;;;;;0.82;0.68;;;20.50;50.40;;;;;;6271348;28;20025;-69
2022/05/04 13:58:06;;;;;;;0.75;0.73;;;20.50;50.40;;;;;;6270627;28;20025;-68
2022/05/04 14:01:07;;;;;;;0.68;0.68;;;20.50;50.40;;;;;;6270902;28;20028;-69
2022/05/04 14:04:08;;;;;;;0.50;0.50;;;20.50;50.40;;;;;;6270540;28;20021;-68
2022/05/04 14:07:09;;;;;;;0.60;0.60;;;20.50;50.40;;;;;;6270591;28;20032;-69
2022/05/04 14:10:09;;;;;;;0.55;0.50;;;20.50;50.40;;;;;;6270225;28;20392;-69
2022/05/04 14:13:11;;;;;;;1.25;0.80;;;20.50;50.40;;;;;;6270388;28;20086;-69
2022/05/04 14:16:12;;;;;;;0.60;0.57;;;20.50;50.40;;;;;;6270214;28;20025;-69
2022/05/04 14:19:13;;;;;;;0.60;0.60;;;20.50;50.40;;;;;;6270452;28;20068;-71
2022/05/04 14:22:13;;;;;;;0.40;0.40;;;20.50;50.40;;;;;;6270410;28;20043;-69
2022/05/04 14:25:15;;;;;;;0.57;0.55;;;20.50;50.40;;;;;;6270476;28;20420;-70
2022/05/04 14:28:17;;;;;;;0.52;0.52;;;20.50;50.40;;;;;;6270377;28;20037;-69
2022/05/04 14:31:18;;;;;;;0.60;0.55;;;20.50;50.40;;;;;;6271918;28;20765;-69
2022/05/04 14:34:19;;;;;;;0.73;0.60;;;20.50;50.40;;;;;;6257264;28;20064;-69
2022/05/04 14:37:22;;;;;;;0.68;0.68;;;20.50;50.40;;;;;;6257106;28;20380;-69
2022/05/04 14:40:23;;;;;;;0.70;0.50;;;20.50;50.40;;;;;;6275026;28;20029;-68
2022/05/04 14:43:24;;;;;;;0.52;0.50;;;20.50;50.40;;;;;;6274991;28;20025;-69
2022/05/04 14:46:26;;;;;;;0.63;0.60;;;20.50;50.40;;;;;;6274938;28;20040;-68
2022/05/04 14:49:28;;;;;;;0.50;0.40;;;20.50;50.40;;;;;;6257215;28;20032;-69
2022/05/04 14:52:29;;;;;;;0.50;0.50;;;20.50;50.40;;;;;;6274930;28;20069;-68
2022/05/04 14:55:30;;;;;;;0.50;0.50;;;20.50;50.40;;;;;;6274508;28;20130;-69
2022/05/04 14:58:31;;;;;;;0.60;0.50;;;20.50;51.10;;;;;;6274921;28;20488;-68
2022/05/04 15:01:31;;;;;;;0.63;0.60;;;20.50;50.40;;;;;;6256494;28;20021;-69
2022/05/04 15:07:52;;;;;;;0.65;0.40;;;20.50;50.40;;;;;;6274460;28;20431;-69
2022/05/04 15:10:52;;;;;;;0.70;0.60;;;20.50;50.40;;;;;;6274462;28;20118;-69
2022/05/04 15:13:53;;;;;;;0.70;0.70;;;20.50;50.40;;;;;;6274273;28;20021;-68
2022/05/04 15:16:54;;;;;;;0.50;0.50;;;20.50;50.40;;;;;;6274066;28;20112;-69
2022/05/04 15:19:54;;;;;;;0.68;0.63;;;20.50;50.50;;;;;;6274052;28;20483;-69
2022/05/04 15:22:56;;;;;;;0.50;0.50;;;20.50;50.40;;;;;;6274104;28;20438;-69
2022/05/04 15:25:56;;;;;;;0.82;0.63;;;20.50;50.40;;;;;;6273857;28;20025;-69
2022/05/04 15:28:57;;;;;;;0.75;0.60;;;20.50;50.40;;;;;;6274090;28;20404;-67
2022/05/04 15:32:00;;;;;;;0.60;0.50;;;20.50;50.40;;;;;;6273623;28;20106;-67
2022/05/04 15:35:00;;;;;;;0.70;0.52;;;20.50;50.50;;;;;;6273583;28;20071;-67
2022/05/04 15:38:01;;;;;;;0.80;0.57;;;20.50;50.40;;;;;;6273643;28;20033;-67
2022/05/04 15:41:03;;;;;;;0.65;0.63;;;20.50;50.40;;;;;;6273611;28;20067;-67
2022/05/04 15:44:04;;;;;;;0.68;0.63;;;20.50;50.40;;;;;;6272717;28;20048;-67
2022/05/04 15:47:05;;;;;;;0.75;0.68;;;20.50;50.40;;;;;;6273372;28;20120;-67
2022/05/04 15:50:07;;;;;;;0.47;0.47;;;20.50;50.50;;;;;;6273508;28;20025;-68
2022/05/04 15:53:08;;;;;;;0.38;0.38;;;20.50;50.50;;;;;;6272909;28;20032;-67
2022/05/04 15:56:08;;;;;;;0.60;0.60;;;20.50;50.40;;;;;;6272930;28;20033;-67
2022/05/04 15:59:09;;;;;;;0.63;0.52;;;20.50;50.40;;;;;;6271706;28;20071;-67
2022/05/04 16:02:10;;;;;;;0.77;0.68;;;20.50;50.50;;;;;;6272963;28;20024;-68
2022/05/04 16:05:11;;;;;;;0.57;0.50;;;20.50;50.40;;;;;;6255097;28;20028;-67
2022/05/04 16:08:14;;;;;;;0.77;0.70;;;20.50;50.50;;;;;;6272724;28;20409;-67
2022/05/04 16:11:16;;;;;;;0.55;0.55;;;20.50;50.50;;;;;;6272939;28;20031;-67
2022/05/04 16:14:17;;;;;;;0.88;0.88;;;20.50;50.50;;;;;;6271479;28;20032;-68
2022/05/04 16:23:57;;;;;;;0.52;0.50;;;20.50;50.50;;;;;;6270699;28;20021;-67
2022/05/04 16:26:58;;;;;;;1.55;0.60;;;20.50;50.50;;;;;;6270507;28;20238;-68
2022/05/04 16:29:59;;;;;;;0.60;0.60;;;20.50;50.40;;;;;;6270531;28;20507;-68
2022/05/04 16:32:59;;;;;;;3.20;0.60;;;20.50;50.50;;;;;;6252392;28;20494;-68
2022/05/04 16:36:00;;;;;;;0.65;0.65;;;20.50;50.50;;;;;;6269141;28;20025;-68
2022/05/04 16:39:02;;;;;;;0.70;0.70;;;20.50;50.50;;;;;;6268982;28;20031;-68